Iona, Idaho
Current Conditions -  °F | °C
As of 12:53 PM on Monday 22 Dec 2014 (Local Time) from KIDA Reporting Station
Broken Clouds Broken Clouds  
Wind Chill: 37°   Ceiling: 11000
Heat Index: 40°   Visibility: 10mi
Dew Point: 28°   Wind: 5mph
Humidity: 63%   Direction: 260°W
Pressure: 29.95"   Gusts: NA
Location:  43.53°N, 111.93°W
Report Text: KIDA 221953Z 26004KT 10SM SCT010 BKN110 BKN200 04/M02 A2995 RMK AO2 SLP154 SHSN DSNT SW-N MOV N T00441022
Loading
Personal Weather Stations






























Interactive Weather Map New forecast layout! Learn more

10-Day Weather Forecast

Advertisements
Track Severe Weather on mobile